NCAR-RAP Real-Time Weather Data

Output produced by METARs form (23 June 2021  09:07 UTC)
found at http://weather.rap.ucar.edu/surface/
 
CYQR 230800Z 01003KT 15SM FEW140 17/10 A2953 RMK AC1 SLP997 DENSITY ALT 3100FT
CYQR 230700Z 21007KT 15SM FEW110 SCT140 17/11 A2952 RMK AC1AC2 SLP994 DENSITY ALT 3100FT
CYQR 230600Z 19009KT 15SM FEW110 BKN140 18/11 A2952 RMK AC2AC3 SLP996 DENSITY ALT 3200FT
CYQR 230500Z 17008KT 15SM BKN120 19/11 A2952 RMK AC6 SLP996 DENSITY ALT 3300FT
CYQR 230400Z 16005KT 15SM FEW110 BKN150 BKN270 21/12 A2953 RMK ACC1AC5CI1 SLP999 DENSITY ALT 3500FT
CYQR 230300Z 16005KT 15SM FEW090 BKN150 BKN300 25/10 A2953 RMK ACC1AC5CI1 SLP998 DENSITY ALT 3900FT
CYQR 230200Z 00000KT 15SM FEW090 BKN150 BKN210 BKN300 25/12 A2955 RMK ACC1AC4CI1CI1 SLP005 DENSITY ALT 4000FT
CYQR 230100Z 29009KT 15SM FEW090 FEW180 SCT210 BKN300 27/09 A2955 RMK AC1AC1CI4CI3 AC TR AC TR SLP008 DENSITY ALT 4200FT
CYQR 230000Z 30010G16KT 15SM FEW090 FEW180 FEW240 BKN300 28/08 A2955 RMK CU1AC1CI1CI6 CU TR AC TR SLP010 DENSITY ALT 4200FT
CYQR 222300Z 30013G19KT 15SM FEW100 FEW180 BKN300 30/09 A2956 RMK CU1AC1CI7 CU TR AC TR SLP011 DENSITY ALT 4400FT
CYQR 222200Z 27010G23KT 220V310 15SM FEW100 FEW180 BKN300 30/08 A2956 RMK CU1AC1CI7 CU TR AC TR CS ASOCTD WSHFT 2153 SLP011 DENSITY ALT 4500FT
 
 
CXBK 230800Z AUTO 21008KT 14/09 RMK AO1 SLP982 T01350090 58006
CXBK 230700Z AUTO 21008KT 15/10 RMK AO1 SLP986 T01520102 56006
CXBK 230600Z AUTO 20005KT 17/12 RMK AO1 SLP987 T01650119 57005
CXBK 230500Z AUTO 18006KT 17/13 RMK AO1 SLP989 T01650130 58007
CXBK 230400Z AUTO 16006KT 17/11 RMK AO1 SLP994 T01740113 56007
CXBK 230300Z AUTO 20004KT 20/12 RMK AO1 SLP994 T02040122 58006
CXBK 230200Z AUTO 26001KT 23/13 RMK AO1 SLP997 T02300130 58004
CXBK 230100Z AUTO 30006KT 26/09 RMK AO1 SLP002 T02610090 55003
CXBK 230000Z AUTO 30010KT 28/06 RMK AO1 PK WND 27020/2300 SLP001 T02800057 56011
CXBK 222300Z AUTO 28015G20KT 31/02 RMK AO1 PK WND 27020/2210 SLP003 T03060020 56015
CXBK 222200Z AUTO 26013G23KT 30/05 RMK AO1 PK WND 24023/2158 SLP007 T02980052 56019